DIAP

Abidjan/Port Bouet Airport

Airport
ICAO code
DIAP
IATA Code
ABJ
Summary
ICAO Region
AFI
ICAO Territory
Location

Port Bouet, Abidjan

Serving
Abidjan
Elevation
95 ft
Coordinates
5° 15' 41" N , 3° 55' 35" W
KCC
Am
Metar
Observation
DIAP 112000Z 25004KT 9999 FEW015 24/24 Q1012 NOSIG
Station
Abidjan
Date/Time
2022-08-11 20:00:00
Wind direction
250°
Wind speed
04 kts
Lowest cloud amount
few clouds
Temperature
24°C
Dew point
24°C
Humidity
100%
QNH
1012 hPa
Weather condition
n/a

International airport serving the capital of the Ivory Coast.

Climatology

Tropical Monsoon climate (Köppen climate classification Am)

Runways

Designator Length Width Surface Rops
3/21 3000 50 ASP Yes/Yes

Airport map

Aerial View

SKYbrary Partners:

Safety knowledge contributed by: